createdAt,value
2022-11-19T00:02:08.707Z,2.00
2022-11-19T00:04:38.366Z,2.00
2022-11-19T00:07:06.761Z,1.53
2022-11-19T00:09:36.493Z,1.87
2022-11-19T00:12:22.403Z,2.40
2022-11-19T00:14:51.091Z,2.40
2022-11-19T00:17:19.343Z,2.30
2022-11-19T00:19:48.775Z,2.40
2022-11-19T00:22:16.987Z,2.10
2022-11-19T00:24:45.364Z,2.30
2022-11-19T00:27:13.582Z,2.60
2022-11-19T00:29:41.988Z,2.80
2022-11-19T00:32:10.694Z,1.93
2022-11-19T00:34:38.956Z,1.60
2022-11-19T00:37:08.624Z,1.80
2022-11-19T00:39:36.887Z,2.13
2022-11-19T00:42:05.644Z,2.47
2022-11-19T00:44:37.116Z,2.07
2022-11-19T00:47:05.778Z,1.53
2022-11-19T00:49:34.087Z,1.60
2022-11-19T00:52:02.617Z,1.90
2022-11-19T00:54:32.720Z,2.20
2022-11-19T00:57:00.961Z,2.10
2022-11-19T00:59:29.412Z,1.73
2022-11-19T01:01:57.818Z,1.63
2022-11-19T01:04:26.268Z,1.90
2022-11-19T01:06:54.629Z,1.83
2022-11-19T01:09:22.989Z,1.70
2022-11-19T01:11:52.830Z,1.53
2022-11-19T01:14:21.413Z,2.10
2022-11-19T01:16:49.969Z,1.80
2022-11-19T01:19:18.647Z,1.50
2022-11-19T01:21:47.333Z,2.00
2022-11-19T01:24:15.717Z,1.80
2022-11-19T01:26:46.044Z,2.50
2022-11-19T01:29:16.332Z,2.20
2022-11-19T01:31:44.815Z,2.20
2022-11-19T01:34:13.500Z,2.00
2022-11-19T01:36:41.671Z,2.57
2022-11-19T01:39:10.085Z,1.93
2022-11-19T01:41:38.470Z,2.53
2022-11-19T01:44:07.712Z,1.73
2022-11-19T01:46:38.795Z,1.80
2022-11-19T01:49:11.536Z,1.83
2022-11-19T01:51:42.522Z,1.77
2022-11-19T01:54:18.162Z,2.03
2022-11-19T01:56:46.481Z,2.07
2022-11-19T01:59:18.054Z,2.00
2022-11-19T02:01:47.935Z,1.90
2022-11-19T02:04:19.059Z,1.50
2022-11-19T02:06:48.165Z,2.30
2022-11-19T02:09:16.757Z,1.87
2022-11-19T02:12:12.750Z,2.27
2022-11-19T02:14:55.198Z,1.70
2022-11-19T02:17:36.844Z,2.47
2022-11-19T02:20:44.133Z,1.80
2022-11-19T02:23:46.567Z,1.87
2022-11-19T02:26:59.116Z,1.93
2022-11-19T02:29:59.065Z,2.03
2022-11-19T02:32:32.808Z,2.10
2022-11-19T02:35:07.624Z,2.13
2022-11-19T02:37:44.591Z,1.80
2022-11-19T02:40:20.583Z,1.90
2022-11-19T02:42:55.609Z,2.10
2022-11-19T02:45:29.866Z,1.77
2022-11-19T02:48:01.321Z,2.03
2022-11-19T02:50:34.344Z,1.77
2022-11-19T02:53:05.062Z,1.90
2022-11-19T02:55:33.568Z,2.20
2022-11-19T02:58:07.096Z,1.70
2022-11-19T03:01:01.535Z,2.00
2022-11-19T03:03:49.203Z,2.20
2022-11-19T03:06:21.334Z,2.07
2022-11-19T03:08:49.755Z,1.90
2022-11-19T03:11:22.379Z,2.17
2022-11-19T03:14:13.764Z,1.87
2022-11-19T03:16:50.437Z,2.13
2022-11-19T03:19:30.640Z,1.67
2022-11-19T03:22:06.177Z,1.90
2022-11-19T03:24:38.047Z,2.40
2022-11-19T03:27:11.193Z,1.70
2022-11-19T03:29:44.986Z,1.90
2022-11-19T03:32:18.958Z,2.00
2022-11-19T03:34:51.871Z,2.00
2022-11-19T03:37:24.250Z,2.10
2022-11-19T03:39:54.386Z,2.07
2022-11-19T03:42:27.058Z,2.00
2022-11-19T03:45:00.927Z,1.70
2022-11-19T03:47:34.288Z,1.97
2022-11-19T03:50:06.490Z,1.93
2022-11-19T03:52:34.965Z,1.83
2022-11-19T03:55:03.505Z,2.00
2022-11-19T03:57:31.913Z,2.20
2022-11-19T04:00:00.203Z,2.30
2022-11-19T04:02:28.721Z,2.00
2022-11-19T04:04:58.226Z,2.03
2022-11-19T04:07:26.561Z,2.50
2022-11-19T04:09:54.837Z,2.23
2022-11-19T04:12:24.655Z,2.50
2022-11-19T04:14:53.792Z,2.80
2022-11-19T04:17:22.228Z,2.20
2022-11-19T04:19:50.653Z,3.17
2022-11-19T04:22:20.317Z,2.67
2022-11-19T04:24:48.856Z,2.20
2022-11-19T04:27:17.134Z,2.70
2022-11-19T04:29:45.560Z,2.83
2022-11-19T04:32:14.245Z,2.53
2022-11-19T04:34:42.585Z,2.20
2022-11-19T04:37:11.079Z,2.50
2022-11-19T04:39:40.621Z,3.13
2022-11-19T04:42:08.972Z,2.60
2022-11-19T04:44:37.410Z,2.53
2022-11-19T04:47:05.823Z,2.13
2022-11-19T04:49:34.210Z,2.47
2022-11-19T04:52:02.501Z,2.33
2022-11-19T04:54:31.149Z,2.60
2022-11-19T04:57:00.716Z,2.40
2022-11-19T04:59:28.984Z,2.57
2022-11-19T05:01:57.448Z,2.80
2022-11-19T05:04:25.848Z,2.90
2022-11-19T05:06:54.064Z,2.50
2022-11-19T05:09:22.521Z,2.20
2022-11-19T05:11:50.938Z,2.23
2022-11-19T05:14:22.786Z,2.20
2022-11-19T05:16:53.250Z,2.13
2022-11-19T05:19:21.705Z,2.63
2022-11-19T05:21:50.204Z,2.30
2022-11-19T05:24:18.558Z,2.30
2022-11-19T05:26:46.903Z,2.87
2022-11-19T05:29:15.178Z,2.53
2022-11-19T05:31:44.673Z,2.27
2022-11-19T05:34:13.380Z,3.03
2022-11-19T05:36:41.784Z,2.30
2022-11-19T05:39:10.280Z,2.87
2022-11-19T05:41:38.468Z,1.80
2022-11-19T05:44:07.315Z,2.23
2022-11-19T05:46:35.675Z,2.50
2022-11-19T05:49:05.636Z,2.63
2022-11-19T05:51:33.897Z,2.10
2022-11-19T05:54:02.542Z,2.20
2022-11-19T05:56:30.801Z,2.50
2022-11-19T05:58:59.157Z,2.60
2022-11-19T06:01:28.000Z,2.30
2022-11-19T06:03:56.685Z,2.70
2022-11-19T06:06:26.608Z,2.70
2022-11-19T06:08:54.847Z,2.37
2022-11-19T06:11:40.619Z,2.50
2022-11-19T06:14:09.259Z,3.07
2022-11-19T06:16:37.471Z,3.07
2022-11-19T06:19:05.998Z,2.23
2022-11-19T06:21:35.509Z,2.70
2022-11-19T06:24:03.955Z,2.50
2022-11-19T06:26:32.340Z,2.63
2022-11-19T06:29:00.765Z,2.87
2022-11-19T06:31:29.178Z,2.50
2022-11-19T06:33:57.745Z,3.23
2022-11-19T06:36:27.770Z,3.10
2022-11-19T06:38:57.574Z,2.80
2022-11-19T06:41:25.861Z,2.87
2022-11-19T06:43:54.281Z,3.00
2022-11-19T06:46:22.554Z,2.53
2022-11-19T06:48:50.830Z,2.47
2022-11-19T06:51:19.069Z,2.10
2022-11-19T06:53:47.767Z,2.30
2022-11-19T06:56:17.418Z,2.20
2022-11-19T06:58:45.860Z,2.37
2022-11-19T07:01:15.431Z,2.80
2022-11-19T07:03:44.062Z,2.20
2022-11-19T07:06:12.762Z,3.37
2022-11-19T07:08:40.997Z,2.47
2022-11-19T07:11:23.337Z,2.03
2022-11-19T07:13:59.843Z,2.80
2022-11-19T07:16:30.191Z,2.60
2022-11-19T07:18:59.611Z,2.13
2022-11-19T07:21:29.048Z,2.93
2022-11-19T07:23:57.738Z,2.33
2022-11-19T07:26:26.717Z,3.30
2022-11-19T07:28:59.423Z,3.43
2022-11-19T07:31:30.333Z,2.80
2022-11-19T07:33:59.182Z,2.50
2022-11-19T07:36:27.713Z,1.90
2022-11-19T07:38:56.072Z,2.27
2022-11-19T07:41:41.957Z,2.87
2022-11-19T07:44:11.833Z,1.93
2022-11-19T07:46:41.066Z,2.10
2022-11-19T07:49:09.450Z,2.07
2022-11-19T07:51:37.701Z,2.47
2022-11-19T07:54:06.361Z,3.47
2022-11-19T07:56:34.653Z,2.90
2022-11-19T07:59:02.929Z,2.37
2022-11-19T08:01:32.890Z,2.20
2022-11-19T08:04:02.252Z,2.50
2022-11-19T08:06:30.980Z,2.70
2022-11-19T08:08:59.264Z,2.87
2022-11-19T08:11:27.677Z,2.60
2022-11-19T08:13:56.361Z,2.47
2022-11-19T08:16:41.981Z,3.13
2022-11-19T08:19:15.417Z,2.90
2022-11-19T08:21:45.229Z,2.93
2022-11-19T08:24:14.469Z,3.77
2022-11-19T08:26:43.146Z,3.37
2022-11-19T08:29:16.287Z,2.93
2022-11-19T08:31:46.717Z,3.27
2022-11-19T08:34:16.641Z,2.90
2022-11-19T08:36:45.314Z,2.57
2022-11-19T08:39:13.697Z,2.40
2022-11-19T08:41:55.909Z,2.27
2022-11-19T08:44:24.314Z,4.77
2022-11-19T08:46:52.719Z,6.53
2022-11-19T08:49:22.258Z,6.73
2022-11-19T08:51:50.654Z,5.03
2022-11-19T08:54:19.788Z,5.30
2022-11-19T08:56:48.588Z,4.30
2022-11-19T08:59:17.117Z,4.33
2022-11-19T09:01:45.653Z,4.83
2022-11-19T09:04:13.906Z,4.90
2022-11-19T09:06:43.450Z,5.10
2022-11-19T09:09:11.896Z,5.17
2022-11-19T09:11:42.844Z,5.30
2022-11-19T09:14:11.870Z,5.40
2022-11-19T09:16:42.592Z,5.30
2022-11-19T09:19:10.785Z,5.07
2022-11-19T09:21:39.165Z,6.33
2022-11-19T09:24:09.064Z,6.30
2022-11-19T09:26:37.361Z,6.07
2022-11-19T09:29:05.565Z,7.03
2022-11-19T09:31:33.930Z,6.67
2022-11-19T09:34:03.955Z,8.30
2022-11-19T09:36:35.730Z,8.57
2022-11-19T09:39:08.850Z,8.17
2022-11-19T09:41:49.667Z,7.67
2022-11-19T09:44:36.535Z,8.33
2022-11-19T09:47:24.215Z,8.80
2022-11-19T09:50:03.082Z,9.27
2022-11-19T09:52:34.464Z,10.37
2022-11-19T09:55:04.398Z,10.13
2022-11-19T09:57:38.221Z,9.23
2022-11-19T10:00:11.953Z,10.13
2022-11-19T10:02:40.449Z,10.47
2022-11-19T10:05:11.481Z,9.53
2022-11-19T10:07:51.192Z,10.50
2022-11-19T10:10:34.073Z,10.10
2022-11-19T10:13:28.937Z,10.37
2022-11-19T10:16:06.752Z,11.80
2022-11-19T10:18:43.541Z,11.37
2022-11-19T10:21:19.524Z,12.97
2022-11-19T10:23:52.849Z,13.40
2022-11-19T10:26:27.857Z,14.23
2022-11-19T10:28:57.791Z,13.53
2022-11-19T10:31:36.481Z,14.27
2022-11-19T10:34:11.977Z,13.50
2022-11-19T10:36:43.504Z,15.10
2022-11-19T10:39:19.389Z,12.47
2022-11-19T10:41:53.177Z,12.77
2022-11-19T10:44:40.438Z,14.07
2022-11-19T10:47:14.186Z,16.10
2022-11-19T10:49:43.824Z,15.50
2022-11-19T10:52:29.581Z,16.33
2022-11-19T10:55:04.138Z,15.80
2022-11-19T10:57:34.817Z,16.37
2022-11-19T11:00:03.848Z,15.50
2022-11-19T11:02:37.140Z,16.70
2022-11-19T11:05:11.858Z,16.83
2022-11-19T11:07:55.119Z,15.83
2022-11-19T11:10:36.314Z,16.60
2022-11-19T11:13:47.011Z,16.40
2022-11-19T11:16:18.304Z,16.77
2022-11-19T11:18:47.967Z,18.47
2022-11-19T11:21:31.272Z,17.70
2022-11-19T11:24:00.070Z,18.57
2022-11-19T11:26:30.673Z,18.43
2022-11-19T11:29:02.285Z,18.60
2022-11-19T11:31:33.635Z,19.67
2022-11-19T11:34:03.346Z,20.37
2022-11-19T11:36:33.512Z,19.30
2022-11-19T11:39:04.481Z,21.10
2022-11-19T11:44:33.401Z,22.60
2022-11-19T11:47:05.097Z,23.87
2022-11-19T11:49:36.647Z,22.90
2022-11-19T11:52:15.035Z,23.23
2022-11-19T11:54:59.302Z,23.90
2022-11-19T11:57:30.799Z,22.83
2022-11-19T12:00:00.816Z,24.13
2022-11-19T12:02:31.507Z,23.90
2022-11-19T12:05:03.493Z,24.63
2022-11-19T12:07:53.452Z,25.70
2022-11-19T12:10:27.710Z,24.83
2022-11-19T12:13:09.869Z,27.30
2022-11-19T12:15:53.110Z,26.30
2022-11-19T12:18:35.194Z,26.80
2022-11-19T12:21:11.732Z,29.03
2022-11-19T12:24:11.678Z,27.93
2022-11-19T12:26:48.692Z,26.70
2022-11-19T12:29:26.324Z,25.53
2022-11-19T12:32:08.670Z,26.20
2022-11-19T12:34:51.881Z,28.27
2022-11-19T12:37:34.639Z,26.70
2022-11-19T12:40:16.669Z,27.57
2022-11-19T12:42:53.524Z,26.70
2022-11-19T12:45:36.343Z,28.43
2022-11-19T12:48:27.223Z,26.47
2022-11-19T12:51:01.853Z,28.43
2022-11-19T12:53:43.984Z,28.20
2022-11-19T12:56:24.015Z,26.43
2022-11-19T12:59:03.630Z,27.70
2022-11-19T13:01:35.642Z,25.23
2022-11-19T13:04:12.695Z,27.80
2022-11-19T13:06:48.723Z,25.67
2022-11-19T13:09:21.998Z,29.43
2022-11-19T13:11:55.269Z,31.83
2022-11-19T13:14:30.124Z,30.43
2022-11-19T13:16:59.911Z,32.73
2022-11-19T13:19:33.240Z,33.50
2022-11-19T13:22:07.620Z,30.90
2022-11-19T13:24:40.617Z,33.70
2022-11-19T13:27:14.788Z,32.80
2022-11-19T13:29:49.193Z,37.37
2022-11-19T13:32:24.698Z,34.07
2022-11-19T13:35:03.774Z,33.20
2022-11-19T13:37:44.894Z,35.97
2022-11-19T13:40:22.470Z,37.33
2022-11-19T13:46:17.509Z,37.50
2022-11-19T13:48:49.719Z,38.90
2022-11-19T13:51:30.260Z,36.93
2022-11-19T13:54:03.373Z,38.40
2022-11-19T13:56:53.656Z,38.00
2022-11-19T13:59:32.506Z,39.57
2022-11-19T14:02:18.940Z,37.77
2022-11-19T14:05:03.882Z,37.87
2022-11-19T14:08:04.928Z,38.57
2022-11-19T14:10:38.315Z,39.80
2022-11-19T14:13:33.019Z,39.50
2022-11-19T14:16:33.413Z,42.73
2022-11-19T14:19:22.263Z,38.20
2022-11-19T14:22:10.887Z,38.03
2022-11-19T14:25:17.204Z,40.63
2022-11-19T14:27:46.247Z,40.90
2022-11-19T14:30:17.125Z,40.97
2022-11-19T14:32:48.714Z,41.03
2022-11-19T14:35:39.374Z,40.70
2022-11-19T14:38:37.072Z,39.20
2022-11-19T14:41:24.732Z,41.37
2022-11-19T14:44:09.999Z,40.20
2022-11-19T14:46:43.592Z,41.27
2022-11-19T14:49:41.512Z,43.07
2022-11-19T14:52:21.753Z,40.27
2022-11-19T14:54:56.350Z,41.43
2022-11-19T14:57:31.463Z,41.43
2022-11-19T15:00:02.506Z,41.47
2022-11-19T15:02:34.239Z,42.90
2022-11-19T15:05:07.908Z,42.47
2022-11-19T15:07:39.874Z,41.77
2022-11-19T15:10:30.886Z,40.53
2022-11-19T15:13:26.872Z,42.47
2022-11-19T15:15:58.920Z,42.50
2022-11-19T15:18:58.981Z,45.63
2022-11-19T15:21:54.119Z,45.87
2022-11-19T15:24:31.512Z,47.17
2022-11-19T15:27:12.390Z,43.80
2022-11-19T15:30:02.126Z,46.37
2022-11-19T15:32:45.588Z,44.20
2022-11-19T15:35:44.981Z,44.47
2022-11-19T15:38:27.252Z,46.53
2022-11-19T15:40:57.962Z,47.00
2022-11-19T15:43:31.585Z,49.80
2022-11-19T15:46:08.709Z,52.60
2022-11-19T15:48:48.575Z,51.97
2022-11-19T15:51:18.934Z,49.27
2022-11-19T15:54:00.361Z,48.67
2022-11-19T15:56:30.506Z,46.90
2022-11-19T15:58:59.950Z,51.27
2022-11-19T16:01:32.468Z,47.00
2022-11-19T16:04:04.982Z,44.50
2022-11-19T16:06:33.594Z,44.17
2022-11-19T16:09:04.805Z,47.17
2022-11-19T16:11:54.232Z,50.23
2022-11-19T16:14:42.663Z,45.70
2022-11-19T16:17:43.203Z,46.87
2022-11-19T16:20:23.187Z,46.03
2022-11-19T16:23:00.458Z,46.47
2022-11-19T16:25:34.369Z,48.03
2022-11-19T16:28:06.061Z,48.03
2022-11-19T16:30:46.110Z,50.20
2022-11-19T16:33:20.683Z,46.33
2022-11-19T16:35:52.812Z,48.10
2022-11-19T16:38:27.187Z,53.13
2022-11-19T16:41:23.716Z,49.23
2022-11-19T16:43:52.469Z,46.20
2022-11-19T16:46:23.396Z,45.90
2022-11-19T16:48:58.092Z,56.30
2022-11-19T16:51:37.893Z,49.93
2022-11-19T16:54:08.218Z,58.47
2022-11-19T16:56:41.007Z,59.10
2022-11-19T16:59:17.450Z,51.70
2022-11-19T17:01:55.912Z,53.30
2022-11-19T17:04:29.929Z,53.47
2022-11-19T17:06:58.897Z,58.50
2022-11-19T17:09:34.848Z,56.10
2022-11-19T17:12:21.331Z,62.40
2022-11-19T17:14:55.711Z,55.20
2022-11-19T17:17:40.796Z,55.97
2022-11-19T17:20:59.955Z,51.50
2022-11-19T17:23:34.827Z,48.97
2022-11-19T17:26:06.663Z,53.43
2022-11-19T17:28:40.809Z,50.07
2022-11-19T17:31:17.902Z,51.63
2022-11-19T17:33:54.940Z,51.97
2022-11-19T17:36:25.871Z,50.97
2022-11-19T17:38:55.698Z,52.13
2022-11-19T17:41:43.312Z,47.33
2022-11-19T17:44:33.799Z,48.33
2022-11-19T17:47:02.626Z,51.50
2022-11-19T17:49:31.346Z,51.83
2022-11-19T17:51:59.778Z,47.77
2022-11-19T17:54:31.136Z,49.27
2022-11-19T17:56:59.650Z,48.37
2022-11-19T17:59:28.163Z,48.10
2022-11-19T18:01:57.026Z,46.57
2022-11-19T18:04:26.616Z,44.63
2022-11-19T18:06:55.027Z,45.60
2022-11-19T18:09:23.743Z,42.50
2022-11-19T18:11:53.340Z,43.40
2022-11-19T18:14:22.112Z,45.67
2022-11-19T18:16:50.609Z,44.83
2022-11-19T18:19:26.513Z,46.27
2022-11-19T18:21:55.358Z,48.23
2022-11-19T18:24:24.272Z,45.77
2022-11-19T18:26:53.954Z,44.63
2022-11-19T18:29:23.079Z,41.03
2022-11-19T18:31:53.448Z,42.93
2022-11-19T18:34:24.602Z,49.23
2022-11-19T18:36:52.964Z,60.60
2022-11-19T18:39:21.591Z,49.10
2022-11-19T18:41:50.025Z,41.73
2022-11-19T18:44:33.789Z,43.87
2022-11-19T18:47:03.050Z,43.23
2022-11-19T18:49:33.636Z,42.73
2022-11-19T18:52:02.078Z,39.63
2022-11-19T18:54:30.747Z,40.93
2022-11-19T18:56:59.445Z,40.97
2022-11-19T18:59:30.006Z,39.80
2022-11-19T19:01:58.539Z,41.37
2022-11-19T19:04:26.837Z,39.47
2022-11-19T19:06:55.295Z,38.13
2022-11-19T19:09:23.936Z,39.90
2022-11-19T19:12:14.199Z,40.97
2022-11-19T19:14:44.430Z,41.63
2022-11-19T19:17:13.096Z,40.57
2022-11-19T19:19:42.007Z,41.43
2022-11-19T19:22:10.389Z,39.50
2022-11-19T19:24:39.107Z,38.80
2022-11-19T19:27:07.707Z,39.30
2022-11-19T19:29:36.126Z,37.70
2022-11-19T19:32:06.231Z,37.93
2022-11-19T19:34:36.071Z,47.73
2022-11-19T19:37:04.758Z,45.87
2022-11-19T19:39:33.078Z,45.10
2022-11-19T19:42:01.480Z,40.27
2022-11-19T19:44:30.018Z,38.67
2022-11-19T19:47:00.108Z,40.90
2022-11-19T19:49:32.438Z,46.53
2022-11-19T19:52:04.509Z,40.47
2022-11-19T19:54:32.917Z,39.70
2022-11-19T19:57:01.375Z,44.67
2022-11-19T19:59:30.061Z,41.23
2022-11-19T20:01:58.516Z,42.07
2022-11-19T20:04:27.297Z,40.10
2022-11-19T20:06:57.027Z,43.17
2022-11-19T20:09:25.465Z,59.53
2022-11-19T20:11:53.883Z,52.37
2022-11-19T20:14:22.623Z,50.53
2022-11-19T20:16:51.897Z,83.57
2022-11-19T20:19:20.512Z,56.53
2022-11-19T20:21:49.087Z,60.57
2022-11-19T20:24:20.362Z,59.63
2022-11-19T20:26:48.765Z,46.20
2022-11-19T20:29:17.859Z,44.33
2022-11-19T20:31:47.695Z,41.60
2022-11-19T20:34:17.220Z,39.30
2022-11-19T20:36:45.869Z,39.53
2022-11-19T20:39:14.575Z,39.57
2022-11-19T20:42:01.672Z,39.63
2022-11-19T20:44:30.494Z,38.03
2022-11-19T20:46:59.761Z,36.53
2022-11-19T20:49:29.409Z,35.57
2022-11-19T20:51:57.935Z,37.33
2022-11-19T20:54:27.105Z,37.70
2022-11-19T20:56:57.930Z,34.57
2022-11-19T20:59:26.825Z,37.10
2022-11-19T21:01:55.998Z,34.20
2022-11-19T21:04:25.953Z,34.93
2022-11-19T21:06:54.831Z,34.90
2022-11-19T21:09:23.489Z,33.90
2022-11-19T21:11:52.175Z,35.87
2022-11-19T21:14:21.838Z,34.03
2022-11-19T21:16:50.333Z,34.10
2022-11-19T21:19:19.180Z,35.33
2022-11-19T21:21:47.964Z,33.93
2022-11-19T21:24:16.371Z,33.87
2022-11-19T21:26:45.039Z,34.30
2022-11-19T21:29:16.304Z,33.57
2022-11-19T21:31:49.373Z,34.37
2022-11-19T21:34:20.536Z,34.87
2022-11-19T21:36:49.525Z,33.57
2022-11-19T21:39:19.209Z,32.80
2022-11-19T21:41:47.686Z,34.77
2022-11-19T21:44:21.057Z,33.20
2022-11-19T21:46:51.770Z,35.00
2022-11-19T21:49:20.615Z,35.13
2022-11-19T21:51:49.269Z,33.77
2022-11-19T21:54:18.898Z,33.40
2022-11-19T21:56:50.273Z,34.70
2022-11-19T21:59:18.815Z,35.17
2022-11-19T22:01:53.313Z,36.97
2022-11-19T22:04:24.445Z,35.53
2022-11-19T22:06:52.878Z,34.10
2022-11-19T22:09:21.719Z,37.50
2022-11-19T22:11:50.371Z,36.37
2022-11-19T22:14:19.063Z,36.17
2022-11-19T22:16:47.626Z,35.93
2022-11-19T22:19:16.174Z,36.83
2022-11-19T22:21:46.821Z,34.73
2022-11-19T22:24:15.225Z,36.10
2022-11-19T22:26:43.600Z,35.57
2022-11-19T22:29:12.030Z,35.13
2022-11-19T22:31:40.302Z,35.27
2022-11-19T22:34:08.851Z,34.07
2022-11-19T22:36:37.227Z,33.97
2022-11-19T22:39:07.301Z,34.77
2022-11-19T22:41:35.901Z,34.27
2022-11-19T22:44:05.202Z,34.43
2022-11-19T22:46:33.851Z,32.87
2022-11-19T22:49:02.253Z,33.50
2022-11-19T22:51:30.828Z,34.70
2022-11-19T22:53:59.450Z,32.43
2022-11-19T22:56:31.018Z,33.23
2022-11-19T22:58:59.689Z,33.63
2022-11-19T23:01:29.471Z,33.37
2022-11-19T23:04:00.097Z,32.97
2022-11-19T23:06:28.762Z,35.20
2022-11-19T23:08:57.174Z,32.07
2022-11-19T23:11:39.684Z,32.03
2022-11-19T23:14:11.779Z,33.20
2022-11-19T23:16:40.620Z,33.37
2022-11-19T23:19:10.000Z,32.57
2022-11-19T23:21:38.465Z,30.97
2022-11-19T23:24:07.181Z,31.73
2022-11-19T23:26:35.883Z,32.93
2022-11-19T23:29:04.296Z,32.13
2022-11-19T23:31:36.035Z,31.50
2022-11-19T23:34:04.939Z,32.80
2022-11-19T23:36:34.462Z,32.27
2022-11-19T23:39:02.893Z,32.17
2022-11-19T23:41:33.509Z,32.27
2022-11-19T23:44:02.306Z,30.47
2022-11-19T23:46:32.087Z,31.60
2022-11-19T23:49:03.229Z,31.70
2022-11-19T23:51:33.556Z,30.93
2022-11-19T23:54:02.522Z,27.40
2022-11-19T23:56:32.876Z,30.50
2022-11-19T23:59:01.929Z,31.67
